Time;durP1;ratioP1;P1;durP2;ratioP2;P2;SDS_P1;SDS_P2;PMS_P1;PMS_P2;Temp;Humidity;BMP_temperature;BMP_pressure;BME280_temperature;BME280_humidity;BME280_pressure;Samples;Min_cycle;Max_cycle;Signal;HPM_P1;HPM_P2
2022/07/22 00:00:45;;;;;;;5.85;1.35;;;16.40;99.90;;;;;;4892505;29;20040;-84
2022/07/22 00:03:14;;;;;;;2.58;0.52;;;16.40;99.90;;;;;;4892521;29;20084;-84
2022/07/22 00:05:39;;;;;;;5.53;0.70;;;16.40;99.90;;;;;;4890431;29;20041;-85
2022/07/22 00:08:05;;;;;;;3.30;0.90;;;16.30;99.90;;;;;;4892746;29;20048;-84
2022/07/22 00:10:30;;;;;;;4.55;1.30;;;16.30;99.90;;;;;;4893619;29;20558;-84
2022/07/22 00:12:56;;;;;;;8.30;2.30;;;16.20;99.90;;;;;;4891836;29;20048;-85
2022/07/22 00:15:21;;;;;;;3.45;1.17;;;16.10;99.90;;;;;;4893144;29;20495;-85
2022/07/22 00:17:47;;;;;;;6.68;1.80;;;16.10;99.90;;;;;;4892001;29;20445;-83
2022/07/22 00:20:13;;;;;;;10.20;2.97;;;16.00;99.90;;;;;;4892993;29;20116;-84
2022/07/22 00:22:38;;;;;;;5.72;1.73;;;16.00;99.90;;;;;;4876330;29;20096;-84
2022/07/22 00:25:04;;;;;;;6.32;2.20;;;15.90;99.90;;;;;;4893313;29;20078;-84
2022/07/22 00:27:30;;;;;;;9.38;2.58;;;15.90;99.90;;;;;;4874631;29;20052;-84
2022/07/22 00:29:55;;;;;;;4.53;2.05;;;15.80;99.90;;;;;;4891324;29;20405;-85
2022/07/22 00:32:21;;;;;;;9.95;2.60;;;15.80;99.90;;;;;;4894748;29;20045;-84
2022/07/22 00:34:47;;;;;;;8.88;3.30;;;15.80;99.90;;;;;;4889213;29;20415;-83
2022/07/22 00:37:13;;;;;;;5.65;2.35;;;15.80;99.90;;;;;;4893793;29;20049;-83
2022/07/22 00:39:38;;;;;;;7.93;2.38;;;15.80;99.90;;;;;;4893639;29;20033;-84
2022/07/22 00:42:04;;;;;;;9.27;3.10;;;15.80;99.90;;;;;;4895248;29;20112;-83
2022/07/22 00:44:30;;;;;;;11.55;2.38;;;15.90;99.90;;;;;;4908431;29;20071;-83
2022/07/22 00:46:55;;;;;;;12.50;3.20;;;16.00;99.90;;;;;;4894817;29;20727;-83
2022/07/22 00:49:21;;;;;;;7.38;2.58;;;15.90;99.90;;;;;;4895796;29;20048;-83
2022/07/22 00:51:47;;;;;;;6.53;2.25;;;15.90;99.90;;;;;;4893827;29;20116;-83
2022/07/22 00:54:13;;;;;;;7.35;2.60;;;15.90;99.90;;;;;;4895683;29;20099;-83
2022/07/22 00:56:39;;;;;;;9.95;2.45;;;15.90;99.90;;;;;;4879822;29;20124;-83
2022/07/22 00:59:10;;;;;;;7.10;2.70;;;15.80;99.90;;;;;;4893117;29;20149;-83
2022/07/22 01:01:36;;;;;;;7.65;2.25;;;15.80;99.90;;;;;;4890297;29;20064;-83
2022/07/22 01:04:04;;;;;;;7.07;2.60;;;15.80;99.90;;;;;;4895165;29;20032;-83
2022/07/22 01:06:30;;;;;;;14.50;3.45;;;15.80;99.90;;;;;;4894663;29;20123;-83
2022/07/22 01:08:56;;;;;;;6.32;2.78;;;15.80;99.90;;;;;;4895488;29;20044;-83
2022/07/22 01:11:23;;;;;;;9.82;2.15;;;15.80;99.90;;;;;;4895059;29;20036;-83
2022/07/22 01:13:48;;;;;;;14.18;3.72;;;15.70;99.90;;;;;;4880051;29;20056;-82
2022/07/22 01:16:16;;;;;;;6.65;2.97;;;15.70;99.90;;;;;;4896169;29;20443;-83
2022/07/22 01:18:42;;;;;;;5.70;2.20;;;15.70;99.90;;;;;;4894912;29;20041;-82
2022/07/22 01:21:09;;;;;;;8.88;3.35;;;15.70;99.90;;;;;;4895364;29;20060;-82
2022/07/22 01:23:35;;;;;;;5.85;2.40;;;15.70;99.90;;;;;;4896095;29;20060;-82
2022/07/22 01:26:02;;;;;;;8.10;2.95;;;15.70;99.90;;;;;;4895977;29;20041;-82
2022/07/22 01:28:27;;;;;;;6.03;2.55;;;15.80;99.90;;;;;;4896008;29;20445;-83
2022/07/22 01:30:53;;;;;;;6.20;2.17;;;15.70;99.90;;;;;;4896345;29;20096;-82
2022/07/22 01:33:20;;;;;;;9.00;3.22;;;15.60;99.90;;;;;;4896231;29;20048;-82
2022/07/22 01:35:46;;;;;;;5.15;2.10;;;15.80;99.90;;;;;;4897635;29;20040;-82
2022/07/22 01:38:13;;;;;;;5.47;2.53;;;15.80;99.90;;;;;;4896367;29;20049;-82
2022/07/22 01:40:39;;;;;;;12.15;2.95;;;15.80;99.90;;;;;;4894838;29;20036;-82
2022/07/22 01:43:05;;;;;;;11.00;3.72;;;15.80;99.90;;;;;;4881266;29;20041;-82
2022/07/22 01:45:31;;;;;;;7.45;2.33;;;15.80;99.90;;;;;;4896715;29;20045;-82
2022/07/22 01:47:58;;;;;;;6.35;2.35;;;15.70;99.90;;;;;;4900963;29;20048;-81
2022/07/22 01:50:24;;;;;;;6.78;2.10;;;15.80;99.90;;;;;;4900612;29;20484;-81
2022/07/22 01:52:50;;;;;;;9.13;3.25;;;15.80;99.90;;;;;;4899171;29;20044;-81
2022/07/22 01:55:15;;;;;;;8.60;2.30;;;15.80;99.90;;;;;;4905830;29;20499;-81
2022/07/22 01:57:41;;;;;;;9.77;2.72;;;15.80;99.90;;;;;;4905929;29;20045;-82
2022/07/22 02:00:08;;;;;;;8.60;3.03;;;15.80;99.90;;;;;;4911009;29;20052;-82
2022/07/22 02:02:35;;;;;;;5.88;1.67;;;15.70;99.90;;;;;;4906590;29;20158;-82
2022/07/22 02:05:00;;;;;;;4.93;1.98;;;15.70;99.90;;;;;;4908731;29;20172;-81
2022/07/22 02:07:26;;;;;;;7.60;2.33;;;15.70;99.90;;;;;;4903421;29;20088;-81
2022/07/22 02:09:52;;;;;;;6.63;2.63;;;15.70;99.90;;;;;;4900345;29;20182;-81
2022/07/22 02:12:19;;;;;;;7.57;2.05;;;15.70;99.90;;;;;;4909540;29;20060;-81
2022/07/22 02:14:44;;;;;;;10.52;2.13;;;15.60;99.90;;;;;;4901160;29;20055;-81
2022/07/22 02:17:13;;;;;;;7.15;1.75;;;15.60;99.90;;;;;;4901040;29;20044;-81
2022/07/22 02:19:39;;;;;;;8.15;1.42;;;15.60;99.90;;;;;;4881662;29;20048;-81
2022/07/22 02:22:05;;;;;;;7.50;2.35;;;15.60;99.90;;;;;;4903791;29;20084;-81
2022/07/22 02:24:30;;;;;;;4.25;2.00;;;15.60;99.90;;;;;;4902102;29;20079;-81
2022/07/22 02:26:56;;;;;;;7.55;1.25;;;15.60;99.90;;;;;;4900034;29;20047;-81
2022/07/22 02:29:22;;;;;;;6.45;2.25;;;15.60;99.90;;;;;;4904052;29;20047;-81
2022/07/22 02:31:47;;;;;;;9.15;1.88;;;15.60;99.90;;;;;;4885182;29;20634;-81
2022/07/22 02:34:13;;;;;;;6.30;1.42;;;15.60;99.90;;;;;;4912627;29;20437;-81
2022/07/22 02:36:38;;;;;;;5.85;1.45;;;15.70;99.90;;;;;;4900300;29;20032;-80
2022/07/22 02:39:04;;;;;;;5.40;1.40;;;15.60;99.90;;;;;;4901285;29;20091;-81
2022/07/22 02:41:30;;;;;;;9.10;1.40;;;15.60;99.90;;;;;;4900345;29;20047;-80
2022/07/22 02:43:55;;;;;;;6.88;2.33;;;15.60;99.90;;;;;;4897970;29;20045;-80
2022/07/22 02:46:22;;;;;;;5.60;0.93;;;15.60;99.90;;;;;;4900667;29;20036;-80
2022/07/22 02:48:48;;;;;;;4.00;1.13;;;15.60;99.90;;;;;;4898710;29;20048;-80
2022/07/22 02:51:14;;;;;;;10.73;1.88;;;15.60;99.90;;;;;;4900434;29;20101;-80
2022/07/22 02:53:39;;;;;;;7.30;1.30;;;15.60;99.90;;;;;;4882278;29;20048;-81
2022/07/22 02:56:05;;;;;;;5.80;1.17;;;15.60;99.90;;;;;;4909308;29;20672;-81
2022/07/22 02:58:31;;;;;;;10.82;1.60;;;15.60;99.90;;;;;;4900087;29;20044;-80
2022/07/22 03:00:57;;;;;;;4.70;2.03;;;15.50;99.90;;;;;;4897593;29;20436;-80
2022/07/22 03:03:23;;;;;;;6.40;1.33;;;15.60;99.90;;;;;;4896908;29;20045;-80
2022/07/22 03:05:49;;;;;;;5.20;1.00;;;15.50;99.90;;;;;;4897815;29;20068;-81
2022/07/22 03:08:15;;;;;;;7.28;1.63;;;15.60;99.90;;;;;;4896783;29;20048;-80
2022/07/22 03:10:40;;;;;;;3.53;0.95;;;15.60;99.90;;;;;;4894650;29;20083;-79
2022/07/22 03:13:06;;;;;;;6.75;1.88;;;15.60;99.90;;;;;;4895928;29;20044;-79
2022/07/22 03:15:31;;;;;;;5.30;1.60;;;15.50;99.90;;;;;;4892719;29;20110;-79
2022/07/22 03:17:57;;;;;;;4.85;1.20;;;15.60;99.90;;;;;;4893809;29;20044;-79
2022/07/22 03:20:23;;;;;;;6.55;1.48;;;15.60;99.90;;;;;;4892629;29;20119;-78
2022/07/22 03:22:48;;;;;;;3.17;0.82;;;15.50;99.90;;;;;;4894747;29;20381;-79
2022/07/22 03:25:14;;;;;;;8.07;1.20;;;15.50;99.90;;;;;;4894891;29;20057;-79
2022/07/22 03:27:40;;;;;;;7.22;0.93;;;15.50;99.90;;;;;;4892382;29;21574;-79
2022/07/22 03:30:06;;;;;;;5.47;1.42;;;15.50;99.90;;;;;;4894224;29;20044;-80
2022/07/22 03:32:31;;;;;;;6.43;2.08;;;15.50;99.90;;;;;;4892929;29;20044;-79
2022/07/22 03:34:57;;;;;;;4.88;1.20;;;15.50;99.90;;;;;;4895407;29;20120;-80
2022/07/22 03:37:24;;;;;;;3.80;1.08;;;15.50;99.90;;;;;;4883381;29;20083;-80
2022/07/22 03:39:49;;;;;;;6.88;1.38;;;15.50;99.90;;;;;;4897003;29;20048;-80
2022/07/22 03:42:15;;;;;;;4.15;0.70;;;15.50;99.90;;;;;;4913551;29;20041;-80
2022/07/22 03:44:40;;;;;;;6.80;0.70;;;15.50;99.90;;;;;;4898238;29;20040;-80
2022/07/22 03:47:06;;;;;;;3.10;0.88;;;15.50;99.90;;;;;;4897129;29;20040;-80
2022/07/22 03:49:32;;;;;;;4.20;0.70;;;15.50;99.90;;;;;;4896938;29;20056;-80
2022/07/22 03:51:59;;;;;;;4.13;0.80;;;15.50;99.90;;;;;;4896441;29;20628;-80
2022/07/22 03:54:24;;;;;;;5.60;0.50;;;15.60;99.90;;;;;;4897319;29;20032;-80
2022/07/22 03:56:50;;;;;;;2.45;0.45;;;15.60;99.90;;;;;;4881367;29;20420;-80
2022/07/22 03:59:16;;;;;;;2.72;0.65;;;15.60;99.90;;;;;;4895942;29;20040;-80
2022/07/22 04:01:42;;;;;;;5.80;1.33;;;15.60;99.90;;;;;;4895480;29;20048;-80
2022/07/22 04:04:08;;;;;;;5.38;0.77;;;15.70;99.90;;;;;;4893010;29;20051;-79
2022/07/22 04:06:33;;;;;;;4.35;0.47;;;15.80;99.90;;;;;;4885503;29;20048;-79
2022/07/22 04:08:59;;;;;;;4.97;0.68;;;15.80;99.90;;;;;;4879058;29;20041;-79
2022/07/22 04:11:26;;;;;;;3.55;0.60;;;15.80;99.90;;;;;;4904300;29;20040;-79
2022/07/22 04:13:52;;;;;;;5.55;0.50;;;15.80;99.90;;;;;;4891865;29;20044;-79
2022/07/22 04:16:18;;;;;;;3.20;0.70;;;15.80;99.90;;;;;;4890590;29;20080;-78
2022/07/22 04:18:43;;;;;;;2.70;0.60;;;15.80;99.90;;;;;;4894243;29;20036;-79
2022/07/22 04:21:09;;;;;;;6.22;0.65;;;15.80;99.90;;;;;;4892608;29;20048;-79
2022/07/22 04:23:35;;;;;;;4.82;1.17;;;15.80;99.90;;;;;;4894191;29;20036;-79
2022/07/22 04:26:01;;;;;;;3.90;0.32;;;15.90;99.90;;;;;;4892709;29;20104;-79
2022/07/22 04:28:26;;;;;;;6.03;0.77;;;15.80;99.90;;;;;;4893381;29;20036;-79
2022/07/22 04:30:52;;;;;;;2.35;0.88;;;15.80;99.90;;;;;;4893234;29;20488;-78
2022/07/22 04:33:17;;;;;;;2.38;0.50;;;15.80;99.90;;;;;;4877033;29;20045;-79
2022/07/22 04:35:43;;;;;;;4.90;1.05;;;15.80;99.90;;;;;;4892699;29;20037;-79
2022/07/22 04:38:09;;;;;;;5.18;0.98;;;15.80;99.90;;;;;;4874345;29;20032;-79
2022/07/22 04:40:34;;;;;;;3.60;0.60;;;15.80;99.90;;;;;;4892993;29;20040;-79
2022/07/22 04:43:00;;;;;;;2.72;0.60;;;15.80;99.90;;;;;;4906085;29;20036;-79
2022/07/22 04:45:26;;;;;;;5.22;0.55;;;15.80;99.90;;;;;;4891570;29;20050;-79
2022/07/22 04:47:51;;;;;;;2.72;0.70;;;15.80;99.90;;;;;;4894493;29;20491;-80
2022/07/22 04:50:17;;;;;;;3.13;0.40;;;15.90;99.90;;;;;;4896296;29;20055;-79
2022/07/22 04:52:42;;;;;;;5.88;0.90;;;15.90;99.90;;;;;;4891666;29;20043;-80
2022/07/22 04:55:08;;;;;;;3.80;0.75;;;15.90;99.90;;;;;;4894561;29;20112;-79
2022/07/22 04:57:34;;;;;;;2.03;0.50;;;16.00;99.90;;;;;;4894696;29;20134;-79
2022/07/22 04:59:59;;;;;;;4.53;0.43;;;15.90;99.90;;;;;;4894325;29;20045;-80
2022/07/22 05:02:25;;;;;;;2.90;0.60;;;15.90;99.90;;;;;;4893414;29;20392;-80
2022/07/22 05:04:50;;;;;;;5.00;1.17;;;15.90;99.90;;;;;;4894523;29;20037;-79
2022/07/22 05:07:16;;;;;;;2.40;1.02;;;15.90;99.90;;;;;;4894877;29;20072;-79
2022/07/22 05:09:41;;;;;;;7.30;1.38;;;15.90;99.90;;;;;;4893061;29;20040;-79
2022/07/22 05:12:07;;;;;;;2.50;0.52;;;15.90;99.90;;;;;;4893600;29;20048;-79
2022/07/22 05:14:33;;;;;;;2.33;0.55;;;16.00;99.90;;;;;;4894094;29;20307;-79
2022/07/22 05:16:58;;;;;;;2.47;0.60;;;16.00;99.90;;;;;;4895119;29;20404;-79
2022/07/22 05:19:24;;;;;;;3.05;0.50;;;16.00;99.90;;;;;;4901388;29;20040;-79
2022/07/22 05:21:49;;;;;;;1.20;0.60;;;16.10;99.90;;;;;;4895317;29;20116;-79
2022/07/22 05:24:15;;;;;;;3.40;0.50;;;16.10;99.90;;;;;;4899453;29;20327;-79
2022/07/22 05:26:41;;;;;;;5.30;1.90;;;16.20;99.90;;;;;;4900646;29;20072;-79
2022/07/22 05:29:06;;;;;;;3.45;0.40;;;16.20;99.90;;;;;;4900672;29;20048;-79
2022/07/22 05:31:32;;;;;;;2.70;0.70;;;16.20;99.90;;;;;;4902828;29;20052;-79
2022/07/22 05:33:57;;;;;;;4.05;0.73;;;16.30;99.90;;;;;;4898626;29;20576;-79
2022/07/22 05:36:23;;;;;;;4.53;0.80;;;16.20;99.90;;;;;;4890810;29;20044;-79
2022/07/22 05:38:48;;;;;;;2.63;0.43;;;16.20;99.90;;;;;;4898076;29;20040;-80
2022/07/22 05:41:14;;;;;;;6.32;0.40;;;16.30;99.90;;;;;;4897368;29;20041;-79
2022/07/22 05:43:40;;;;;;;4.05;0.70;;;16.30;99.90;;;;;;4897830;29;20127;-79
2022/07/22 05:46:07;;;;;;;2.47;0.40;;;16.40;99.90;;;;;;4900084;29;20056;-79
2022/07/22 05:48:32;;;;;;;5.88;0.60;;;16.40;99.90;;;;;;4901276;29;20555;-79
2022/07/22 05:50:58;;;;;;;3.40;0.70;;;16.50;99.90;;;;;;4882514;29;20049;-79
2022/07/22 05:53:23;;;;;;;3.53;0.50;;;16.50;99.90;;;;;;4888846;29;20114;-80
2022/07/22 05:55:49;;;;;;;3.08;1.90;;;16.60;99.90;;;;;;4909056;29;20086;-80
2022/07/22 05:58:15;;;;;;;2.03;0.55;;;16.60;99.90;;;;;;4905067;29;20047;-80
2022/07/22 06:00:41;;;;;;;6.30;0.80;;;16.70;99.90;;;;;;4904203;29;20040;-79
2022/07/22 06:03:07;;;;;;;2.08;0.47;;;16.70;99.90;;;;;;4904395;29;20045;-80
2022/07/22 06:05:32;;;;;;;3.38;0.32;;;16.80;99.90;;;;;;4903441;29;20041;-80
2022/07/22 06:07:58;;;;;;;4.68;0.80;;;16.70;99.90;;;;;;4898322;29;20140;-80
2022/07/22 06:10:23;;;;;;;4.28;0.73;;;16.70;99.90;;;;;;4900560;29;20071;-80
2022/07/22 06:12:49;;;;;;;2.90;0.73;;;16.70;99.90;;;;;;4899535;29;20073;-80
2022/07/22 06:15:14;;;;;;;5.13;1.23;;;16.80;99.90;;;;;;4899659;29;20051;-80
2022/07/22 06:17:40;;;;;;;3.75;0.35;;;16.70;99.90;;;;;;4899751;29;20048;-79
2022/07/22 06:20:06;;;;;;;4.95;0.57;;;16.80;99.90;;;;;;4898132;29;20077;-80
2022/07/22 06:22:31;;;;;;;3.05;0.45;;;16.90;99.90;;;;;;4913594;29;20044;-80
2022/07/22 06:24:57;;;;;;;4.30;0.77;;;16.90;99.90;;;;;;4897759;29;20041;-79
2022/07/22 06:27:23;;;;;;;1.48;0.40;;;17.00;99.90;;;;;;4896849;29;20543;-79
2022/07/22 06:29:48;;;;;;;3.50;0.40;;;17.10;99.90;;;;;;4895401;29;20036;-79
2022/07/22 06:32:14;;;;;;;1.55;0.70;;;17.20;99.90;;;;;;4893092;29;20556;-79
2022/07/22 06:34:39;;;;;;;2.30;0.75;;;17.30;99.90;;;;;;4896541;29;20129;-79
2022/07/22 06:37:05;;;;;;;2.90;0.40;;;17.40;99.90;;;;;;4897021;29;20041;-79
2022/07/22 06:39:30;;;;;;;2.38;0.70;;;17.40;99.90;;;;;;4895663;29;20040;-79
2022/07/22 06:41:56;;;;;;;5.57;0.80;;;17.50;99.90;;;;;;4896872;29;20186;-80
2022/07/22 06:44:22;;;;;;;5.60;0.85;;;17.60;99.90;;;;;;4897253;29;20040;-80
2022/07/22 06:46:47;;;;;;;5.65;0.68;;;17.70;99.90;;;;;;4897553;29;20405;-80
2022/07/22 06:49:13;;;;;;;2.17;0.70;;;17.70;99.90;;;;;;4891761;29;20069;-80
2022/07/22 06:51:38;;;;;;;2.88;1.15;;;17.80;99.90;;;;;;4893697;29;20065;-79
2022/07/22 06:54:05;;;;;;;3.75;0.60;;;17.90;99.90;;;;;;4896308;29;20079;-80
2022/07/22 06:56:30;;;;;;;2.38;0.50;;;18.00;99.90;;;;;;4898822;29;20147;-80
2022/07/22 06:58:56;;;;;;;5.30;0.40;;;18.20;99.90;;;;;;4896553;29;20480;-79
2022/07/22 07:01:21;;;;;;;2.60;0.60;;;18.20;99.90;;;;;;4891871;29;20036;-80
2022/07/22 07:03:47;;;;;;;4.78;0.40;;;18.30;99.90;;;;;;4899055;29;20072;-80
2022/07/22 07:06:12;;;;;;;1.98;0.30;;;18.40;99.90;;;;;;4896415;29;20041;-80
2022/07/22 07:08:39;;;;;;;1.65;0.30;;;18.40;99.90;;;;;;4910350;29;20164;-81
2022/07/22 07:11:05;;;;;;;2.90;0.45;;;18.30;99.90;;;;;;4898643;29;20041;-79
2022/07/22 07:13:31;;;;;;;3.20;0.85;;;18.30;99.90;;;;;;4905873;29;20088;-80
2022/07/22 07:15:57;;;;;;;2.08;0.30;;;18.30;99.90;;;;;;4901749;29;20052;-80
2022/07/22 07:18:23;;;;;;;3.45;0.40;;;18.40;99.90;;;;;;4896567;29;20046;-81
2022/07/22 07:20:48;;;;;;;4.20;0.85;;;18.50;99.90;;;;;;4904128;29;20040;-81
2022/07/22 07:23:14;;;;;;;4.45;0.50;;;18.60;99.90;;;;;;4900454;29;20044;-80
2022/07/22 07:25:40;;;;;;;2.47;0.40;;;18.80;99.90;;;;;;4900030;29;20116;-80
2022/07/22 07:28:06;;;;;;;2.83;0.60;;;18.90;99.90;;;;;;4899523;29;20051;-80
2022/07/22 07:30:31;;;;;;;2.25;0.40;;;19.00;99.90;;;;;;4898177;29;20048;-79
2022/07/22 07:32:57;;;;;;;2.78;0.50;;;19.00;99.90;;;;;;4907651;29;20044;-81
2022/07/22 07:35:22;;;;;;;6.30;0.60;;;19.00;99.90;;;;;;4897004;29;20062;-80
2022/07/22 07:37:48;;;;;;;4.93;0.68;;;19.00;99.90;;;;;;4900222;29;20076;-80
2022/07/22 07:40:14;;;;;;;1.92;0.50;;;19.10;99.90;;;;;;4892676;29;20037;-80
2022/07/22 07:42:40;;;;;;;3.40;0.57;;;19.00;99.90;;;;;;4892029;29;20036;-80
2022/07/22 07:45:06;;;;;;;2.88;0.40;;;19.00;99.90;;;;;;4892806;29;20092;-80
2022/07/22 07:47:32;;;;;;;4.57;0.40;;;18.90;99.90;;;;;;4889443;29;20041;-79
2022/07/22 07:50:00;;;;;;;1.75;0.30;;;18.80;99.90;;;;;;4892315;29;20119;-79
2022/07/22 07:52:25;;;;;;;3.45;0.90;;;18.70;99.90;;;;;;4894217;29;20045;-79
2022/07/22 07:54:51;;;;;;;2.45;0.30;;;18.60;99.90;;;;;;4892229;29;20052;-79
2022/07/22 07:57:17;;;;;;;4.95;0.55;;;18.60;99.90;;;;;;4886652;29;20456;-78
2022/07/22 07:59:43;;;;;;;2.20;0.30;;;18.60;99.90;;;;;;4891292;29;20525;-79
2022/07/22 08:02:09;;;;;;;1.88;0.40;;;18.90;99.90;;;;;;4918758;29;20060;-79
2022/07/22 08:04:35;;;;;;;2.75;0.40;;;19.00;99.90;;;;;;4892626;29;20047;-79
2022/07/22 08:07:01;;;;;;;5.68;0.95;;;19.30;99.90;;;;;;4891112;29;20048;-79
2022/07/22 08:09:27;;;;;;;2.90;0.40;;;19.40;99.90;;;;;;4893517;29;20104;-80
2022/07/22 08:11:52;;;;;;;1.92;0.30;;;19.40;99.90;;;;;;4892572;29;20044;-80
2022/07/22 08:14:19;;;;;;;6.45;4.00;;;19.40;99.90;;;;;;4893408;29;20080;-79
2022/07/22 08:16:45;;;;;;;65.93;44.25;;;19.50;99.90;;;;;;4891043;29;20567;-79
2022/07/22 08:19:11;;;;;;;4.75;2.03;;;19.50;99.90;;;;;;4893092;29;20048;-79
2022/07/22 08:21:36;;;;;;;17.13;9.40;;;19.50;99.90;;;;;;4891131;29;20048;-79
2022/07/22 08:24:02;;;;;;;7.32;2.40;;;19.50;99.90;;;;;;4893219;29;20420;-80
2022/07/22 08:26:28;;;;;;;260.83;206.95;;;19.50;99.90;;;;;;4892641;29;20083;-79
2022/07/22 08:28:54;;;;;;;9.80;7.72;;;19.50;99.90;;;;;;4892494;29;20046;-80
2022/07/22 08:31:19;;;;;;;4.72;1.52;;;19.60;99.90;;;;;;4891123;29;20058;-80
2022/07/22 08:33:45;;;;;;;2.67;0.40;;;19.60;99.90;;;;;;4883705;29;20397;-79
2022/07/22 08:36:10;;;;;;;4.93;1.48;;;19.80;99.90;;;;;;4898310;29;20076;-80
2022/07/22 08:38:36;;;;;;;1.63;0.25;;;19.90;99.90;;;;;;4894290;29;20041;-80
2022/07/22 08:41:03;;;;;;;2.80;0.28;;;19.90;99.90;;;;;;4892189;29;20047;-80
2022/07/22 08:43:30;;;;;;;5.05;0.90;;;19.80;99.90;;;;;;4894188;29;20049;-80
2022/07/22 08:45:56;;;;;;;3.00;0.30;;;19.80;99.90;;;;;;4881209;29;20488;-80
2022/07/22 08:48:22;;;;;;;1.95;0.20;;;19.70;99.90;;;;;;4898474;29;20707;-80
2022/07/22 08:50:48;;;;;;;1.55;0.30;;;19.70;99.90;;;;;;4896739;29;20119;-80
2022/07/22 08:53:14;;;;;;;2.33;0.40;;;19.60;99.90;;;;;;4892079;29;20044;-81
2022/07/22 08:55:43;;;;;;;2.60;0.65;;;19.60;99.90;;;;;;4889921;29;20492;-80
2022/07/22 08:58:09;;;;;;;1.92;0.40;;;19.60;99.90;;;;;;4893808;29;20511;-80
2022/07/22 09:00:35;;;;;;;1.88;0.40;;;19.70;99.90;;;;;;4893582;29;20048;-80
2022/07/22 09:03:15;;;;;;;3.63;0.80;;;19.70;99.90;;;;;;4903583;29;20154;-80
2022/07/22 09:05:42;;;;;;;5.65;0.40;;;19.70;99.90;;;;;;4895567;29;20511;-81
2022/07/22 09:08:08;;;;;;;2.58;0.40;;;19.80;99.90;;;;;;4892996;29;20056;-80
2022/07/22 09:10:35;;;;;;;3.58;0.57;;;19.90;99.90;;;;;;4892204;29;20416;-80
2022/07/22 09:13:04;;;;;;;2.65;0.40;;;20.00;99.90;;;;;;4894514;29;20499;-81
2022/07/22 09:15:40;;;;;;;3.67;0.20;;;20.00;99.90;;;;;;4892804;29;20044;-83
2022/07/22 09:18:07;;;;;;;2.92;0.50;;;19.90;99.90;;;;;;4891135;29;20076;-82
2022/07/22 09:20:35;;;;;;;1.13;0.20;;;19.70;99.90;;;;;;4897007;29;20048;-82
2022/07/22 09:23:01;;;;;;;1.83;0.32;;;19.60;99.90;;;;;;4897593;29;20432;-82
2022/07/22 09:25:35;;;;;;;2.22;0.45;;;19.60;99.90;;;;;;4895367;29;20518;-81
2022/07/22 09:28:07;;;;;;;2.25;0.28;;;19.60;99.90;;;;;;4895169;29;20052;-82
2022/07/22 09:30:53;;;;;;;1.75;0.20;;;19.50;99.90;;;;;;4878059;29;20119;-82
2022/07/22 09:33:20;;;;;;;1.80;0.20;;;19.40;99.90;;;;;;4903700;29;20074;-82
2022/07/22 09:35:47;;;;;;;44.13;29.63;;;19.40;99.90;;;;;;4912918;29;20140;-81
2022/07/22 09:38:14;;;;;;;14.30;8.80;;;19.50;99.90;;;;;;4885898;29;20066;-82
2022/07/22 09:40:42;;;;;;;41.80;25.58;;;19.50;99.90;;;;;;4914401;29;20133;-82
2022/07/22 09:43:12;;;;;;;29.05;16.85;;;19.60;99.90;;;;;;4901467;29;20044;-81
2022/07/22 09:45:49;;;;;;;18.25;9.05;;;19.60;99.90;;;;;;4897029;29;20067;-82
2022/07/22 09:48:17;;;;;;;7.22;4.30;;;19.70;99.90;;;;;;4895229;29;20120;-82
2022/07/22 09:50:44;;;;;;;2.03;0.50;;;19.90;99.90;;;;;;4897619;29;20062;-82
2022/07/22 09:53:09;;;;;;;2.13;0.43;;;19.80;99.90;;;;;;4902994;29;20048;-81
2022/07/22 09:55:38;;;;;;;4.13;0.57;;;19.90;99.90;;;;;;4908087;29;20052;-81
2022/07/22 09:58:05;;;;;;;3.20;0.30;;;20.10;99.90;;;;;;4896123;29;20040;-80
2022/07/22 10:00:31;;;;;;;3.47;1.27;;;20.30;99.90;;;;;;4891704;29;20135;-80
2022/07/22 10:02:58;;;;;;;2.88;0.52;;;20.40;99.90;;;;;;4895609;29;20072;-80
2022/07/22 10:05:39;;;;;;;3.10;0.32;;;20.60;99.90;;;;;;4894750;29;20036;-80
2022/07/22 10:08:06;;;;;;;2.40;0.30;;;20.80;99.90;;;;;;4891609;29;20112;-80
2022/07/22 10:10:33;;;;;;;0.82;0.30;;;20.80;99.90;;;;;;4895192;29;20048;-80
2022/07/22 10:13:01;;;;;;;1.58;0.30;;;20.80;99.90;;;;;;4894863;29;20078;-80
2022/07/22 10:15:28;;;;;;;2.08;0.40;;;20.70;99.90;;;;;;4880307;29;20037;-80
2022/07/22 10:18:00;;;;;;;2.53;0.28;;;20.70;99.90;;;;;;4894670;29;20376;-81
2022/07/22 10:20:28;;;;;;;1.48;0.30;;;20.80;99.90;;;;;;4891550;29;20029;-81
2022/07/22 10:22:59;;;;;;;2.25;0.40;;;20.60;99.90;;;;;;4886072;29;20040;-81
2022/07/22 10:25:27;;;;;;;2.38;0.20;;;20.50;99.90;;;;;;4882025;29;20111;-81
2022/07/22 10:27:58;;;;;;;1.90;0.20;;;20.50;99.90;;;;;;4903810;29;20048;-81
2022/07/22 10:30:28;;;;;;;2.35;0.20;;;20.70;99.90;;;;;;4885614;29;20052;-81
2022/07/22 10:33:11;;;;;;;1.88;0.20;;;20.70;99.90;;;;;;4886203;29;20040;-81
2022/07/22 10:35:54;;;;;;;3.67;0.47;;;20.80;99.90;;;;;;4918057;29;20049;-80
2022/07/22 10:38:21;;;;;;;1.88;0.30;;;20.80;99.90;;;;;;4902007;29;20029;-80
2022/07/22 10:40:52;;;;;;;2.55;0.38;;;20.80;99.90;;;;;;4908452;29;20044;-82
2022/07/22 10:43:24;;;;;;;3.03;0.40;;;20.70;99.90;;;;;;4903867;29;20327;-81
2022/07/22 10:45:55;;;;;;;3.22;0.57;;;20.40;99.90;;;;;;4903726;29;20045;-81
2022/07/22 10:48:31;;;;;;;1.45;0.40;;;20.20;99.90;;;;;;4905691;29;20087;-80
2022/07/22 10:51:09;;;;;;;63.35;42.75;;;20.00;99.90;;;;;;4901662;29;20051;-81
2022/07/22 10:53:42;;;;;;;16.48;9.82;;;19.90;99.90;;;;;;4916869;29;20061;-81
2022/07/22 10:56:18;;;;;;;22.40;14.15;;;19.90;99.90;;;;;;4900715;29;20065;-81
2022/07/22 10:58:51;;;;;;;113.07;76.75;;;19.90;99.90;;;;;;4902846;29;20056;-80
2022/07/22 11:01:19;;;;;;;7.13;2.50;;;20.10;99.90;;;;;;4908783;29;20036;-80
2022/07/22 11:03:46;;;;;;;9.63;5.90;;;20.20;99.90;;;;;;4906653;29;20179;-81
2022/07/22 11:06:38;;;;;;;3.42;0.70;;;20.30;99.90;;;;;;4902292;29;20044;-81
2022/07/22 11:09:08;;;;;;;1.70;0.20;;;20.40;99.90;;;;;;4898175;29;20788;-82
2022/07/22 11:11:38;;;;;;;2.00;0.25;;;20.30;99.90;;;;;;4899811;29;20128;-82
2022/07/22 11:14:27;;;;;;;2.03;0.40;;;20.00;99.90;;;;;;4900145;29;20104;-80
2022/07/22 11:16:58;;;;;;;2.05;0.20;;;20.00;99.90;;;;;;4893080;29;20045;-80
2022/07/22 11:19:29;;;;;;;4.13;0.30;;;20.10;99.90;;;;;;4883238;29;20033;-80
2022/07/22 11:22:01;;;;;;;1.15;0.20;;;20.20;99.90;;;;;;4901185;29;20551;-80
2022/07/22 11:24:35;;;;;;;0.70;0.28;;;20.20;99.90;;;;;;4882134;29;20033;-80
2022/07/22 11:27:54;;;;;;;;;;;;;;;;;;;;;
2022/07/22 11:33:37;;;;;;;3.00;0.20;;;20.20;99.90;;;;;;4871332;29;20048;-79
2022/07/22 11:36:16;;;;;;;2.15;0.20;;;20.20;99.90;;;;;;4895397;29;20051;-79
2022/07/22 11:39:16;;;;;;;4.75;0.40;;;20.30;99.90;;;;;;4894210;29;20123;-80
2022/07/22 11:42:00;;;;;;;1.73;0.20;;;20.50;99.90;;;;;;4893125;29;20032;-80
2022/07/22 11:47:50;;;;;;;1.13;0.20;;;20.70;99.90;;;;;;4858949;29;20049;-80
2022/07/22 11:50:41;;;;;;;3.63;0.20;;;20.70;99.90;;;;;;4892773;29;20052;-79
2022/07/22 11:53:33;;;;;;;1.08;0.28;;;20.70;99.90;;;;;;4894303;29;20135;-80
2022/07/22 11:56:48;;;;;;;3.28;0.43;;;20.70;99.90;;;;;;4892880;29;20124;-79
2022/07/22 11:59:59;;;;;;;2.10;0.65;;;20.80;99.90;;;;;;4893232;29;20032;-80
2022/07/22 12:06:51;;;;;;;0.82;0.60;;;20.70;99.90;;;;;;4877845;29;20059;-80
2022/07/22 12:13:41;;;;;;;1.90;0.20;;;20.70;99.90;;;;;;4846594;29;20045;-81
2022/07/22 12:16:26;;;;;;;2.90;0.22;;;21.10;99.90;;;;;;4897494;29;20056;-81
2022/07/22 12:19:13;;;;;;;2.15;0.38;;;21.10;99.90;;;;;;4897753;29;20051;-81
2022/07/22 12:21:58;;;;;;;1.65;0.20;;;21.20;99.90;;;;;;4898993;29;20044;-81
2022/07/22 12:24:34;;;;;;;;;;;21.20;99.90;;;;;;4898634;29;20040;-82
2022/07/22 12:27:08;;;;;;;2.25;0.38;;;21.30;99.90;;;;;;4885381;29;19919;-81
2022/07/22 12:29:36;;;;;;;2.10;0.40;;;21.30;99.90;;;;;;4893469;29;20048;-81
2022/07/22 12:32:05;;;;;;;2.58;0.80;;;21.40;99.90;;;;;;4896296;29;20092;-81
2022/07/22 12:34:42;;;;;;;3.08;0.30;;;21.50;99.90;;;;;;4881787;29;20584;-82
2022/07/22 12:37:15;;;;;;;0.82;0.20;;;21.60;99.90;;;;;;4910245;29;20040;-81
2022/07/22 12:40:05;;;;;;;3.40;0.85;;;21.50;99.90;;;;;;4893041;29;20124;-81
2022/07/22 12:42:42;;;;;;;2.20;0.20;;;21.50;99.90;;;;;;4899420;29;20519;-82
2022/07/22 12:45:12;;;;;;;5.43;2.40;;;21.50;99.90;;;;;;4898972;29;20047;-81
2022/07/22 12:48:03;;;;;;;13.38;7.63;;;21.70;99.90;;;;;;4900488;29;20108;-81
2022/07/22 12:50:32;;;;;;;5.70;2.58;;;21.70;99.90;;;;;;4883894;29;20184;-81
2022/07/22 12:53:09;;;;;;;2.53;0.30;;;21.60;99.90;;;;;;4897818;29;20182;-82
2022/07/22 12:55:41;;;;;;;1.80;0.20;;;21.60;99.90;;;;;;4900073;29;20048;-80
2022/07/22 12:58:08;;;;;;;2.45;0.45;;;21.70;99.90;;;;;;4901374;29;20127;-81
2022/07/22 13:00:42;;;;;;;1.42;0.17;;;21.80;99.90;;;;;;4888816;29;20037;-81
2022/07/22 13:03:08;;;;;;;2.83;0.30;;;21.70;99.90;;;;;;4903324;29;20131;-81
2022/07/22 13:05:37;;;;;;;1.83;0.10;;;21.50;99.90;;;;;;4903334;29;20113;-81
2022/07/22 13:08:04;;;;;;;1.00;0.20;;;21.20;99.90;;;;;;4902506;29;20063;-81